Terminal Aerodrome Forecast
Issued by NWS Twin Cities, MN

Home | Current Version | Previous Version | Graphics & Text | Print | Product List | Glossary On
Versions: 1 2 3 4 5 6 7 8 9 10 11 12 13 14 15 16 17 18 19
000
FTUS43 KMPX 300500
TAFEAU
TAF
KEAU 300523Z 3006/3106 30004KT P6SM BKN100
      TEMPO 3006/3010 -SHRA BKN080
     FM301500 32009KT P6SM SCT050
     FM310100 30003KT P6SM SKC=

USA.gov is the U.S. government's official web portal to all federal, state and local government web resources and services.